createdAt,value
2022-10-05T00:00:32.443Z,99116.85
2022-10-05T00:01:34.315Z,99119.45
2022-10-05T00:02:32.289Z,99122
2022-10-05T00:03:32.916Z,99126.52
2022-10-05T00:04:32.542Z,99126.12
2022-10-05T00:05:34.020Z,99126.25
2022-10-05T00:06:32.353Z,99129.42
2022-10-05T00:07:32.516Z,99132.82
2022-10-05T00:08:35.282Z,99135.52
2022-10-05T00:09:33.672Z,99135.67
2022-10-05T00:10:32.959Z,99130.04
2022-10-05T00:11:32.394Z,99131.25
2022-10-05T00:12:32.382Z,99133.62
2022-10-05T00:13:33.081Z,99127.06
2022-10-05T00:14:35.035Z,99128.91
2022-10-05T00:15:32.677Z,99132.62
2022-10-05T00:16:34.563Z,99131.5
2022-10-05T00:17:32.483Z,99133.59
2022-10-05T00:18:32.704Z,99138.62
2022-10-05T00:19:36.730Z,99139.03
2022-10-05T00:20:33.370Z,99141.7
2022-10-05T00:21:33.380Z,99140.08
2022-10-05T00:22:33.634Z,99146.91
2022-10-05T00:23:34.060Z,99135.09
2022-10-05T00:24:33.520Z,99136.3
2022-10-05T00:25:33.470Z,99133.79
2022-10-05T00:26:33.634Z,99138.56
2022-10-05T00:27:35.619Z,99136.63
2022-10-05T00:28:33.812Z,99135.96
2022-10-05T00:29:34.111Z,99131.13
2022-10-05T00:30:33.813Z,99128.88
2022-10-05T00:31:35.541Z,99128.19
2022-10-05T00:32:33.489Z,99131.97
2022-10-05T00:33:33.507Z,99131.19
2022-10-05T00:34:33.928Z,99133.44
2022-10-05T00:35:34.711Z,99139.47
2022-10-05T00:36:33.634Z,99135
2022-10-05T00:37:33.583Z,99142.15
2022-10-05T00:38:33.649Z,99142.03
2022-10-05T00:39:35.636Z,99149.77
2022-10-05T00:40:45.472Z,99153.48
2022-10-05T00:51:10.704Z,99159.7
2022-10-05T00:58:28.490Z,99169.27
2022-10-05T01:00:33.106Z,99168.42
2022-10-05T01:01:36.662Z,99165.52
2022-10-05T01:08:54.579Z,99172.41
2022-10-05T01:11:54.438Z,99175.48
2022-10-05T01:21:17.645Z,99171.03
2022-10-05T01:32:44.459Z,99165.12
2022-10-05T01:33:46.303Z,99169.27
2022-10-05T01:39:00.655Z,99169.18
2022-10-05T01:41:03.772Z,99164.88
2022-10-05T01:42:08.594Z,99162.42
2022-10-05T01:43:10.557Z,99162.7
2022-10-05T01:44:11.836Z,99164.47
2022-10-05T01:51:26.265Z,99164.43
2022-10-05T01:56:39.442Z,99163.25
2022-10-05T02:03:53.989Z,99168.17
2022-10-05T02:05:02.605Z,99169.59
2022-10-05T02:06:58.033Z,99166.51
2022-10-05T02:08:00.198Z,99171.62
2022-10-05T02:12:09.933Z,99173.3
2022-10-05T02:13:10.239Z,99170.86
2022-10-05T02:14:11.060Z,99171.77
2022-10-05T02:15:13.534Z,99174.11
2022-10-05T02:18:16.164Z,99174.19
2022-10-05T02:20:23.396Z,99175.17
2022-10-05T02:21:21.136Z,99177.3
2022-10-05T02:23:26.891Z,99178.53
2022-10-05T02:24:31.577Z,99177.03
2022-10-05T02:25:31.093Z,99177.71
2022-10-05T02:26:30.396Z,99180.31
2022-10-05T02:27:30.681Z,99182.55
2022-10-05T02:29:30.618Z,99191.48
2022-10-05T02:30:31.363Z,99186.45
2022-10-05T02:32:35.971Z,99184.75
2022-10-05T02:33:33.591Z,99183.73
2022-10-05T02:34:40.408Z,99187.85
2022-10-05T02:35:37.068Z,99189.84
2022-10-05T02:36:37.525Z,99187.31
2022-10-05T02:40:54.259Z,99191.44
2022-10-05T02:41:53.448Z,99191.94
2022-10-05T02:51:25.983Z,99183.16
2022-10-05T02:53:27.098Z,99183.48
2022-10-05T02:55:34.274Z,99189.59
2022-10-05T02:58:49.037Z,99194.59
2022-10-05T03:06:03.713Z,99208.75
2022-10-05T03:07:14.116Z,99200.99
2022-10-05T03:08:09.655Z,99205.76
2022-10-05T03:09:07.638Z,99201.23
2022-10-05T03:10:09.498Z,99196.71
2022-10-05T03:17:25.307Z,99196.31
2022-10-05T03:26:45.707Z,99202.25
2022-10-05T03:27:48.748Z,99205.57
2022-10-05T03:32:03.393Z,99205.73
2022-10-05T03:35:13.038Z,99209.55
2022-10-05T03:36:18.090Z,99208.41
2022-10-05T03:37:13.578Z,99201.55
2022-10-05T03:39:22.079Z,99200.88
2022-10-05T03:50:46.952Z,99192.02
2022-10-05T03:51:48.200Z,99194.72
2022-10-05T03:53:49.539Z,99192.03
2022-10-05T03:54:52.703Z,99190.02
2022-10-05T03:55:56.281Z,99189.97
2022-10-05T03:56:58.175Z,99189.49
2022-10-05T03:57:56.945Z,99187.84
2022-10-05T04:01:03.532Z,99188.25
2022-10-05T04:02:02.116Z,99187.28
2022-10-05T04:04:04.122Z,99182.83
2022-10-05T04:05:05.294Z,99181.3
2022-10-05T04:06:07.111Z,99181.95
2022-10-05T04:07:05.342Z,99185.7
2022-10-05T04:10:12.155Z,99192.5
2022-10-05T04:11:15.162Z,99192.73
2022-10-05T04:14:21.792Z,99195.45
2022-10-05T04:15:23.335Z,99195.3
2022-10-05T04:16:25.430Z,99199.65
2022-10-05T04:17:31.360Z,99193.73
2022-10-05T04:18:36.846Z,99194.41
2022-10-05T04:19:25.797Z,99196.62
2022-10-05T04:20:29.119Z,99193.36
2022-10-05T04:21:38.184Z,99188.25
2022-10-05T04:22:40.646Z,99189.86
2022-10-05T04:23:45.594Z,99195.3
2022-10-05T04:25:43.399Z,99196.53
2022-10-05T04:26:45.690Z,99195.28
2022-10-05T04:29:50.284Z,99181.26
2022-10-05T04:30:47.749Z,99184.95
2022-10-05T04:32:52.841Z,99183.25
2022-10-05T04:33:56.414Z,99186.41
2022-10-05T04:36:58.865Z,99188.73
2022-10-05T04:45:31.125Z,99191.77
2022-10-05T04:48:37.474Z,99197.96
2022-10-05T04:53:46.735Z,99193.08
2022-10-05T04:55:52.977Z,99192.77
2022-10-05T04:56:53.305Z,99195.18
2022-10-05T05:03:10.685Z,99177.57
2022-10-05T05:11:41.590Z,99189.22
2022-10-05T05:16:01.055Z,99201.45
2022-10-05T05:16:58.480Z,99206.25
2022-10-05T05:23:20.930Z,99190.32
2022-10-05T05:28:35.816Z,99197.18
2022-10-05T05:32:42.893Z,99209.95
2022-10-05T05:40:07.335Z,99212.36
2022-10-05T05:43:00.182Z,99220.7
2022-10-05T05:45:07.484Z,99218.97
2022-10-05T05:46:12.833Z,99222.22
2022-10-05T05:47:12.306Z,99217.42
2022-10-05T05:48:15.268Z,99222.3
2022-10-05T05:53:20.658Z,99226.79
2022-10-05T05:54:27.200Z,99230.7
2022-10-05T05:55:24.413Z,99229.62
2022-10-05T05:56:27.191Z,99231.94
2022-10-05T05:57:34.882Z,99234.66
2022-10-05T05:58:33.671Z,99233.3
2022-10-05T05:59:38.099Z,99237.9
2022-10-05T06:00:40.834Z,99237.09
2022-10-05T06:01:44.302Z,99240.97
2022-10-05T06:02:45.830Z,99242.45
2022-10-05T06:05:47.992Z,99247.05
2022-10-05T06:06:48.328Z,99242.78
2022-10-05T06:07:44.990Z,99240.29
2022-10-05T06:08:47.156Z,99238.8
2022-10-05T06:10:49.288Z,99246.48
2022-10-05T06:11:58.057Z,99239.8
2022-10-05T06:12:52.224Z,99240.87
2022-10-05T06:13:50.150Z,99239.72
2022-10-05T06:14:56.386Z,99241.28
2022-10-05T06:15:59.820Z,99241.36
2022-10-05T06:17:03.621Z,99245.49
2022-10-05T06:18:02.777Z,99248.01
2022-10-05T06:19:05.334Z,99249.36
2022-10-05T06:20:05.518Z,99247.19
2022-10-05T06:23:11.619Z,99234.21
2022-10-05T06:24:18.194Z,99235.23
2022-10-05T06:26:22.432Z,99241.98
2022-10-05T06:28:16.513Z,99251.96
2022-10-05T06:29:22.637Z,99255.73
2022-10-05T06:30:19.008Z,99260.28
2022-10-05T06:31:28.458Z,99260.84
2022-10-05T06:42:53.521Z,99239.95
2022-10-05T06:43:56.814Z,99248.21
2022-10-05T06:45:01.836Z,99250.61
2022-10-05T06:48:11.131Z,99244.32
2022-10-05T06:50:18.763Z,99245.34
2022-10-05T06:52:26.377Z,99255.41
2022-10-05T06:56:37.755Z,99251.7
2022-10-05T07:00:50.397Z,99269.23
2022-10-05T07:08:11.628Z,99271.38
2022-10-05T07:09:20.672Z,99278.97
2022-10-05T07:23:49.294Z,99270.1
2022-10-05T07:25:53.524Z,99274.14
2022-10-05T07:31:06.454Z,99272.66
2022-10-05T07:32:10.570Z,99274.38
2022-10-05T07:33:12.666Z,99273.79
2022-10-05T07:37:26.760Z,99277.1
2022-10-05T07:40:32.403Z,99283.12
2022-10-05T07:44:01.470Z,99283.09
2022-10-05T07:44:43.298Z,99280.58
2022-10-05T07:46:54.568Z,99282.33
2022-10-05T07:47:51.323Z,99277.09
2022-10-05T07:55:03.335Z,99280.83
2022-10-05T07:56:02.724Z,99283.99
2022-10-05T08:00:10.525Z,99288.92
2022-10-05T08:04:18.448Z,99290.72
2022-10-05T08:05:21.214Z,99292.99
2022-10-05T08:07:19.138Z,99293.05
2022-10-05T08:11:32.226Z,99287.22
2022-10-05T08:12:31.013Z,99289.45
2022-10-05T08:16:37.483Z,99279.9
2022-10-05T08:17:39.434Z,99276.22
2022-10-05T08:21:43.150Z,99275.45
2022-10-05T08:22:45.826Z,99274.03
2022-10-05T08:23:47.056Z,99275.33
2022-10-05T08:24:53.177Z,99274.86
2022-10-05T08:27:53.902Z,99266.37
2022-10-05T08:31:00.502Z,99270.73
2022-10-05T08:33:12.191Z,99275.06
2022-10-05T08:36:10.627Z,99270.58
2022-10-05T08:38:16.942Z,99276.55
2022-10-05T08:39:17.051Z,99276.45
2022-10-05T09:00:22.012Z,99265.16
2022-10-05T09:02:25.591Z,99268.8
2022-10-05T09:20:09.658Z,99277.7
2022-10-05T09:21:13.666Z,99270.19
2022-10-05T09:27:17.188Z,99267.99
2022-10-05T09:34:39.173Z,99255.95
2022-10-05T09:49:17.005Z,99243.59
2022-10-05T10:16:29.543Z,99247.66
2022-10-05T10:34:10.254Z,99254.38
2022-10-05T10:38:19.014Z,99253.92
2022-10-05T10:47:38.738Z,99250.9
2022-10-05T10:54:58.506Z,99256.58
2022-10-05T10:56:53.611Z,99253.26
2022-10-05T11:24:10.185Z,99218.64
2022-10-05T11:31:30.482Z,99225.9
2022-10-05T11:51:24.050Z,99240.28
2022-10-05T11:55:35.677Z,99254.81
2022-10-05T11:56:41.092Z,99258.16
2022-10-05T12:00:42.584Z,99260.2
2022-10-05T12:20:22.948Z,99256.59
2022-10-05T12:21:27.348Z,99261.36
2022-10-05T12:27:37.735Z,99267.53
2022-10-05T12:29:41.766Z,99266.52
2022-10-05T12:32:50.062Z,99261.27
2022-10-05T12:35:52.795Z,99252.19
2022-10-05T12:37:09.269Z,99252.84
2022-10-05T12:50:25.742Z,99249.91
2022-10-05T12:51:22.207Z,99253.48
2022-10-05T12:53:32.803Z,99252.09
2022-10-05T12:54:31.701Z,99253.94
2022-10-05T12:55:27.201Z,99250.87
2022-10-05T12:56:36.627Z,99252.86
2022-10-05T12:57:41.760Z,99252.34
2022-10-05T13:03:46.004Z,99247.38
2022-10-05T13:04:51.006Z,99244.98
2022-10-05T13:10:50.448Z,99237.44
2022-10-05T13:11:50.329Z,99237.94
2022-10-05T13:15:06.096Z,99240.38
2022-10-05T13:20:19.346Z,99223.24
2022-10-05T13:23:28.070Z,99226.79
2022-10-05T13:27:34.190Z,99230.5
2022-10-05T13:28:37.085Z,99225.12
2022-10-05T13:29:51.032Z,99225.64
2022-10-05T13:30:36.742Z,99223.72
2022-10-05T13:33:50.744Z,99220.03
2022-10-05T13:34:52.826Z,99222.57
2022-10-05T13:42:12.377Z,99219.65
2022-10-05T13:44:13.988Z,99211.7
2022-10-05T13:45:21.425Z,99215.41
2022-10-05T13:47:18.730Z,99209.52
2022-10-05T13:50:28.511Z,99216.32
2022-10-05T13:51:24.685Z,99213.62
2022-10-05T13:54:31.985Z,99213.2
2022-10-05T14:01:47.353Z,99214.23
2022-10-05T14:02:45.567Z,99214.34
2022-10-05T14:04:47.717Z,99214.95
2022-10-05T14:06:47.865Z,99208.97
2022-10-05T14:08:50.851Z,99211.54
2022-10-05T14:09:48.761Z,99208.36
2022-10-05T14:10:47.908Z,99219.3
2022-10-05T14:11:50.249Z,99217.84
2022-10-05T14:13:49.930Z,99216.16
2022-10-05T14:14:51.374Z,99216.5
2022-10-05T14:16:55.365Z,99217.16
2022-10-05T14:17:53.879Z,99222.41
2022-10-05T14:18:56.236Z,99230.72
2022-10-05T14:19:56.528Z,99230.88
2022-10-05T14:21:01.241Z,99223.53
2022-10-05T14:22:02.252Z,99227.48
2022-10-05T14:23:05.075Z,99231.37
2022-10-05T14:25:13.788Z,99225.38
2022-10-05T14:29:17.979Z,99225.73
2022-10-05T14:30:23.557Z,99230.07
2022-10-05T14:32:24.140Z,99227.57
2022-10-05T14:33:23.384Z,99226.69
2022-10-05T14:34:35.875Z,99231.55
2022-10-05T14:36:34.815Z,99231.55
2022-10-05T14:37:42.085Z,99225.84
2022-10-05T14:40:36.997Z,99225.59
2022-10-05T14:41:36.710Z,99229.05
2022-10-05T14:43:37.840Z,99226.12
2022-10-05T14:44:37.786Z,99226.3
2022-10-05T14:46:49.116Z,99227.36
2022-10-05T14:47:51.057Z,99232.49
2022-10-05T14:48:43.630Z,99229.2
2022-10-05T14:49:50.107Z,99231.42
2022-10-05T14:50:54.175Z,99231.33
2022-10-05T14:51:51.411Z,99225.81
2022-10-05T14:54:00.945Z,99228.06
2022-10-05T14:54:57.610Z,99228.08
2022-10-05T15:03:19.131Z,99214.31
2022-10-05T15:05:21.212Z,99216.06
2022-10-05T15:10:36.158Z,99209.09
2022-10-05T15:13:40.715Z,99213.73
2022-10-05T15:14:39.906Z,99212
2022-10-05T15:16:41.749Z,99212.5
2022-10-05T15:17:45.796Z,99208.45
2022-10-05T15:19:55.397Z,99208.88
2022-10-05T15:27:02.622Z,99211.24
2022-10-05T15:42:38.452Z,99230.06
2022-10-05T15:45:43.223Z,99229.02
2022-10-05T15:47:51.701Z,99227.15
2022-10-05T15:50:59.978Z,99219.88
2022-10-05T15:52:03.510Z,99222.93
2022-10-05T15:53:10.597Z,99222.48
2022-10-05T15:54:10.102Z,99219.63
2022-10-05T16:00:21.381Z,99214.42
2022-10-05T16:10:43.923Z,99224.23
2022-10-05T16:12:47.950Z,99224.02
2022-10-05T16:13:54.213Z,99223.17
2022-10-05T16:14:59.089Z,99228.56
2022-10-05T16:15:49.964Z,99225.98
2022-10-05T16:17:00.096Z,99229.58
2022-10-05T16:18:52.012Z,99228.72
2022-10-05T16:27:07.512Z,99223.75
2022-10-05T16:29:11.874Z,99229.35
2022-10-05T16:30:22.002Z,99230.55
2022-10-05T16:31:16.145Z,99226.86
2022-10-05T16:32:18.925Z,99225.56
2022-10-05T16:33:23.247Z,99225.89
2022-10-05T16:36:29.812Z,99222.25
2022-10-05T16:40:44.287Z,99221.56
2022-10-05T16:44:48.243Z,99229.66
2022-10-05T16:45:49.423Z,99231.03
2022-10-05T16:46:50.906Z,99231.14
2022-10-05T16:48:53.836Z,99229.13
2022-10-05T16:52:56.332Z,99228.34
2022-10-05T16:54:58.811Z,99235.31
2022-10-05T16:56:00.558Z,99234.69
2022-10-05T16:57:59.513Z,99235.91
2022-10-05T17:02:12.122Z,99237.94
2022-10-05T17:04:19.597Z,99240.56
2022-10-05T17:05:21.440Z,99243.92
2022-10-05T17:17:58.660Z,99243.36
2022-10-05T17:20:12.702Z,99243.49
2022-10-05T17:24:29.026Z,99243.78
2022-10-05T17:25:24.005Z,99245.45
2022-10-05T17:29:43.464Z,99251.06
2022-10-05T17:30:38.113Z,99253.82
2022-10-05T17:32:38.276Z,99250.3
2022-10-05T17:34:39.053Z,99251.53
2022-10-05T17:36:45.667Z,99247.95
2022-10-05T17:37:43.601Z,99252.14
2022-10-05T17:38:46.866Z,99248
2022-10-05T17:39:52.249Z,99247.43
2022-10-05T17:41:48.559Z,99245.98
2022-10-05T17:42:56.858Z,99245.26
2022-10-05T17:44:59.844Z,99250.42
2022-10-05T17:46:00.978Z,99247.12
2022-10-05T17:46:58.845Z,99250.05
2022-10-05T17:48:04.881Z,99248.51
2022-10-05T17:49:11.211Z,99250.15
2022-10-05T17:50:11.259Z,99248.39
2022-10-05T17:51:07.392Z,99244.15
2022-10-05T17:54:18.092Z,99240.03
2022-10-05T17:55:20.714Z,99236.91
2022-10-05T17:56:12.581Z,99241.84
2022-10-05T17:57:23.899Z,99236.66
2022-10-05T18:00:31.928Z,99239.62
2022-10-05T18:04:37.981Z,99242.95
2022-10-05T18:05:34.180Z,99243.17
2022-10-05T18:06:35.140Z,99243.83
2022-10-05T18:07:35.698Z,99244.33
2022-10-05T18:08:37.977Z,99243.52
2022-10-05T18:09:35.699Z,99243.52
2022-10-05T18:10:39.000Z,99242.48
2022-10-05T18:11:41.399Z,99241.52
2022-10-05T18:15:48.784Z,99248.66
2022-10-05T18:22:00.113Z,99247.71
2022-10-05T18:25:04.475Z,99250.31
2022-10-05T18:29:18.658Z,99255.69
2022-10-05T18:30:21.055Z,99255.83
2022-10-05T18:34:30.599Z,99258.7
2022-10-05T18:35:26.089Z,99254.48
2022-10-05T18:43:46.854Z,99256.5
2022-10-05T18:44:52.187Z,99259.25
2022-10-05T18:50:02.802Z,99265.91
2022-10-05T18:59:30.474Z,99270.59
2022-10-05T19:00:33.542Z,99278.24
2022-10-05T19:02:47.208Z,99278.46
2022-10-05T19:03:46.962Z,99278
2022-10-05T19:05:52.112Z,99280.03
2022-10-05T19:06:54.240Z,99274.3
2022-10-05T19:08:02.073Z,99273.34
2022-10-05T19:09:03.976Z,99275.17
2022-10-05T19:10:02.061Z,99276.73
2022-10-05T19:15:15.863Z,99273.91
2022-10-05T19:18:25.482Z,99275.98
2022-10-05T19:23:41.696Z,99276.65
2022-10-05T19:26:49.806Z,99278.2
2022-10-05T19:29:57.129Z,99277.17
2022-10-05T19:35:08.753Z,99283.8
2022-10-05T19:40:21.377Z,99275.31
2022-10-05T19:41:21.443Z,99273.8
2022-10-05T19:42:25.957Z,99271.31
2022-10-05T19:45:27.344Z,99267.7
2022-10-05T19:48:41.048Z,99266.26
2022-10-05T19:50:34.561Z,99269.97
2022-10-05T19:51:35.548Z,99271.2
2022-10-05T19:52:40.462Z,99266.94
2022-10-05T19:53:37.722Z,99267.35
2022-10-05T19:54:37.492Z,99270.73
2022-10-05T19:55:39.283Z,99268.23
2022-10-05T19:56:46.560Z,99272.19
2022-10-05T19:57:47.537Z,99272.98
2022-10-05T19:58:39.550Z,99277.38
2022-10-05T19:59:44.282Z,99278.38
2022-10-05T20:00:41.233Z,99276.55
2022-10-05T20:01:43.621Z,99279.95
2022-10-05T20:02:42.144Z,99279.44
2022-10-05T20:03:47.006Z,99276.95
2022-10-05T20:04:45.255Z,99277.84
2022-10-05T20:05:43.947Z,99281.59
2022-10-05T20:06:43.757Z,99286.01
2022-10-05T20:07:43.763Z,99283.51
2022-10-05T20:08:45.086Z,99289.2
2022-10-05T20:09:50.589Z,99281.61
2022-10-05T20:11:51.844Z,99282.73
2022-10-05T20:12:52.247Z,99281.24
2022-10-05T20:22:26.636Z,99283.03
2022-10-05T20:23:25.822Z,99280.44
2022-10-05T20:24:26.337Z,99280.98
2022-10-05T20:25:29.105Z,99282.39
2022-10-05T20:28:33.573Z,99284.47
2022-10-05T20:29:34.774Z,99285.41
2022-10-05T20:30:33.435Z,99285.02
2022-10-05T20:31:33.517Z,99283.18
2022-10-05T20:32:33.683Z,99287.2
2022-10-05T20:33:33.652Z,99281.08
2022-10-05T20:34:34.480Z,99278.58
2022-10-05T20:35:33.522Z,99284.24
2022-10-05T20:36:33.721Z,99283.45
2022-10-05T20:37:33.963Z,99282.58
2022-10-05T20:38:36.298Z,99282.16
2022-10-05T20:39:36.156Z,99284.42
2022-10-05T20:40:36.185Z,99279.62
2022-10-05T20:41:36.214Z,99288.09
2022-10-05T20:42:36.290Z,99283.8
2022-10-05T20:43:36.259Z,99285.34
2022-10-05T20:44:36.865Z,99285.91
2022-10-05T20:45:36.266Z,99283.55
2022-10-05T20:46:36.324Z,99281.39
2022-10-05T20:47:36.569Z,99285.45
2022-10-05T20:48:36.345Z,99285.09
2022-10-05T20:49:37.273Z,99283
2022-10-05T20:50:36.363Z,99285.62
2022-10-05T20:51:37.162Z,99283.59
2022-10-05T20:52:37.375Z,99282.22
2022-10-05T20:53:36.419Z,99286.91
2022-10-05T20:54:36.885Z,99281.5
2022-10-05T20:55:36.434Z,99278.09
2022-10-05T20:56:36.460Z,99281.94
2022-10-05T20:57:37.115Z,99283.36
2022-10-05T20:58:36.451Z,99280.14
2022-10-05T20:59:36.747Z,99276.05
2022-10-05T21:00:36.547Z,99278.22
2022-10-05T21:01:36.528Z,99273.77
2022-10-05T21:02:36.544Z,99268.71
2022-10-05T21:03:36.583Z,99264.91
2022-10-05T21:04:43.092Z,99267.28
2022-10-05T21:05:39.555Z,99265.36
2022-10-05T21:06:39.511Z,99269.02
2022-10-05T21:07:39.536Z,99264.34
2022-10-05T21:08:39.573Z,99269.25
2022-10-05T21:09:39.580Z,99271.06
2022-10-05T21:10:39.562Z,99272.44
2022-10-05T21:11:39.663Z,99270.84
2022-10-05T21:12:39.859Z,99262.06
2022-10-05T21:13:40.369Z,99263.34
2022-10-05T21:14:39.641Z,99266.13
2022-10-05T21:15:39.663Z,99265.19
2022-10-05T21:16:39.961Z,99266.28
2022-10-05T21:17:39.672Z,99268.44
2022-10-05T21:18:40.125Z,99266.48
2022-10-05T21:19:39.791Z,99268.49
2022-10-05T21:20:39.746Z,99270.3
2022-10-05T21:21:44.143Z,99269.41
2022-10-05T21:22:40.331Z,99271.16
2022-10-05T21:23:40.634Z,99275.56
2022-10-05T21:24:40.792Z,99273.58
2022-10-05T21:25:40.403Z,99271.66
2022-10-05T21:26:40.996Z,99268.45
2022-10-05T21:27:40.429Z,99267.2
2022-10-05T21:28:40.951Z,99269.59
2022-10-05T21:29:40.447Z,99271.29
2022-10-05T21:30:40.468Z,99275.25
2022-10-05T21:31:40.777Z,99271.8
2022-10-05T21:32:44.239Z,99269.91
2022-10-05T21:33:40.925Z,99268.73
2022-10-05T21:34:41.209Z,99267.77
2022-10-05T21:35:40.978Z,99264.86
2022-10-05T21:36:41.907Z,99262.66
2022-10-05T21:37:40.981Z,99268.12
2022-10-05T21:38:41.628Z,99268.88
2022-10-05T21:39:41.019Z,99268.27
2022-10-05T21:40:41.048Z,99264.7
2022-10-05T21:41:41.028Z,99264.03
2022-10-05T21:42:41.103Z,99266.95
2022-10-05T21:43:41.512Z,99265.57
2022-10-05T21:44:41.160Z,99264.2
2022-10-05T21:45:42.436Z,99263.72
2022-10-05T21:46:41.332Z,99261.91
2022-10-05T21:47:41.179Z,99266.63
2022-10-05T21:48:41.540Z,99266.16
2022-10-05T21:49:41.700Z,99264.11
2022-10-05T21:50:41.475Z,99266.66
2022-10-05T21:51:41.363Z,99265.56
2022-10-05T21:52:41.488Z,99262.7
2022-10-05T21:53:42.593Z,99263.09
2022-10-05T21:54:41.330Z,99267.05
2022-10-05T21:55:43.301Z,99262.95
2022-10-05T21:56:46.210Z,99265.91
2022-10-05T21:57:42.825Z,99266.99
2022-10-05T21:58:43.896Z,99263.05
2022-10-05T21:59:43.080Z,99270.23
2022-10-05T22:00:42.544Z,99265.52
2022-10-05T22:01:42.485Z,99268.13
2022-10-05T22:02:42.669Z,99270.33
2022-10-05T22:03:42.504Z,99269.21
2022-10-05T22:04:42.514Z,99266.61
2022-10-05T22:05:42.637Z,99268.78
2022-10-05T22:06:42.800Z,99266.11
2022-10-05T22:07:42.539Z,99263.89
2022-10-05T22:08:42.594Z,99265.02
2022-10-05T22:09:42.624Z,99267.62
2022-10-05T22:10:42.650Z,99265.28
2022-10-05T22:11:45.652Z,99261.77
2022-10-05T22:12:42.662Z,99263.52
2022-10-05T22:13:47.369Z,99253.73
2022-10-05T22:14:43.562Z,99256.98
2022-10-05T22:15:43.628Z,99253.03
2022-10-05T22:16:43.845Z,99252.62
2022-10-05T22:17:43.782Z,99251.97
2022-10-05T22:18:43.918Z,99255
2022-10-05T22:19:43.644Z,99259.16
2022-10-05T22:20:44.271Z,99258.91
2022-10-05T22:21:43.688Z,99262.48
2022-10-05T22:22:43.687Z,99256.52
2022-10-05T22:23:45.122Z,99261.62
2022-10-05T22:24:43.702Z,99258.88
2022-10-05T22:25:43.741Z,99254.92
2022-10-05T22:26:45.615Z,99250.73
2022-10-05T22:27:44.372Z,99252.91
2022-10-05T22:28:44.238Z,99255.41
2022-10-05T22:29:44.190Z,99256.09
2022-10-05T22:30:44.372Z,99254.17
2022-10-05T22:31:44.899Z,99252.66
2022-10-05T22:32:44.182Z,99258.88
2022-10-05T22:33:43.865Z,99254.02
2022-10-05T22:34:43.877Z,99251.34
2022-10-05T22:35:43.913Z,99255.47
2022-10-05T22:36:44.458Z,99253.65
2022-10-05T22:37:44.969Z,99253.4
2022-10-05T22:38:44.254Z,99252.67
2022-10-05T22:39:43.998Z,99254.59
2022-10-05T22:40:43.973Z,99254.38
2022-10-05T22:41:44.232Z,99258.92
2022-10-05T22:42:44.023Z,99256.06
2022-10-05T22:43:44.068Z,99254.32
2022-10-05T22:44:44.043Z,99254.66
2022-10-05T22:45:44.110Z,99251.97
2022-10-05T22:46:44.087Z,99249.27
2022-10-05T22:47:44.099Z,99251.84
2022-10-05T22:48:44.321Z,99256.37
2022-10-05T22:49:44.131Z,99247.56
2022-10-05T22:50:44.562Z,99254.27
2022-10-05T22:51:44.157Z,99251.31
2022-10-05T22:52:44.210Z,99250.12
2022-10-05T22:53:44.219Z,99249.09
2022-10-05T22:54:44.196Z,99248.45
2022-10-05T22:55:44.208Z,99245.78
2022-10-05T22:56:44.279Z,99249.91
2022-10-05T22:57:44.240Z,99247.06
2022-10-05T22:58:44.514Z,99250.67
2022-10-05T22:59:44.271Z,99253.43
2022-10-05T23:00:58.037Z,99252.14
2022-10-05T23:01:45.436Z,99259.61
2022-10-05T23:02:45.524Z,99257.73
2022-10-05T23:03:45.425Z,99260.41
2022-10-05T23:04:46.167Z,99254.58
2022-10-05T23:05:45.473Z,99253.14
2022-10-05T23:06:45.503Z,99253.49
2022-10-05T23:07:46.003Z,99251.98
2022-10-05T23:08:46.464Z,99254.12
2022-10-05T23:09:45.523Z,99253.38
2022-10-05T23:10:45.541Z,99253.61
2022-10-05T23:11:45.566Z,99257.17
2022-10-05T23:12:57.133Z,99255.23
2022-10-05T23:13:46.449Z,99252.75
2022-10-05T23:14:46.425Z,99250.91
2022-10-05T23:15:46.452Z,99254.05
2022-10-05T23:16:46.821Z,99247.47
2022-10-05T23:17:46.509Z,99253.36
2022-10-05T23:18:50.297Z,99250.78
2022-10-05T23:19:46.967Z,99247.86
2022-10-05T23:20:52.510Z,99250.3
2022-10-05T23:21:49.172Z,99248.27
2022-10-05T23:22:49.192Z,99247.8
2022-10-05T23:23:49.949Z,99250.12
2022-10-05T23:24:49.240Z,99247.3
2022-10-05T23:25:49.922Z,99252.23
2022-10-05T23:26:49.235Z,99256.51
2022-10-05T23:27:49.230Z,99252.19
2022-10-05T23:28:49.693Z,99252.91
2022-10-05T23:29:49.304Z,99255.25
2022-10-05T23:30:49.415Z,99254.08
2022-10-05T23:31:49.349Z,99246.84
2022-10-05T23:32:49.311Z,99250.3
2022-10-05T23:33:49.513Z,99249.59
2022-10-05T23:34:49.730Z,99251.62
2022-10-05T23:35:56.551Z,99250.15
2022-10-05T23:36:53.575Z,99246.2
2022-10-05T23:37:53.271Z,99247.75
2022-10-05T23:38:53.663Z,99246.05
2022-10-05T23:39:53.240Z,99247.5
2022-10-05T23:40:53.695Z,99249.37
2022-10-05T23:41:53.280Z,99246.54
2022-10-05T23:42:53.259Z,99246.16
2022-10-05T23:43:53.291Z,99248.05
2022-10-05T23:44:53.305Z,99246.84
2022-10-05T23:45:53.418Z,99247.73
2022-10-05T23:46:53.366Z,99251.72
2022-10-05T23:47:53.334Z,99248.63
2022-10-05T23:48:53.336Z,99243.41
2022-10-05T23:49:53.370Z,99243.09
2022-10-05T23:50:53.876Z,99243.45
2022-10-05T23:51:53.373Z,99243.64
2022-10-05T23:52:53.472Z,99239.27
2022-10-05T23:53:53.644Z,99237.77
2022-10-05T23:54:53.395Z,99240.34
2022-10-05T23:55:54.091Z,99247.58
2022-10-05T23:56:53.591Z,99243.14
2022-10-05T23:57:53.549Z,99241.59
2022-10-05T23:58:53.514Z,99238.54
2022-10-05T23:59:53.503Z,99242.56
